Time;durP1;ratioP1;P1;durP2;ratioP2;P2;SDS_P1;SDS_P2;PMS_P1;PMS_P2;Temp;Humidity;BMP_temperature;BMP_pressure;BME280_temperature;BME280_humidity;BME280_pressure;Samples;Min_cycle;Max_cycle;Signal;HPM_P1;HPM_P2
2022/01/26 00:00:08;;;;;;;;;;;;;;;19.63;40.52;101182.25;2086247;28;19999;-39
2022/01/26 00:06:19;;;;;;;;;;;;;;;19.65;40.44;101159.25;2082009;28;19921;-39
2022/01/26 00:07:20;;;;;;;;;;;;;;;19.67;40.41;101168.25;2080807;28;19916;-39
2022/01/26 00:08:24;;;;;;;;;;;;;;;19.66;40.29;101163.72;2081968;28;20847;-40
2022/01/26 00:09:26;;;;;;;;;;;;;;;19.68;40.30;101158.16;2084032;28;20003;-39
2022/01/26 00:10:27;;;;;;;;;;;;;;;19.68;40.29;101156.28;2085128;28;19924;-39
2022/01/26 00:11:30;;;;;;;;;;;;;;;19.70;40.23;101156.16;2083964;28;19921;-39
2022/01/26 00:12:30;;;;;;;;;;;;;;;19.71;40.27;101157.91;2082516;28;20235;-39
2022/01/26 00:13:31;;;;;;;;;;;;;;;19.72;40.29;101162.38;2082801;28;20381;-39
2022/01/26 00:14:31;;;;;;;;;;;;;;;19.72;40.34;101159.66;2085241;28;19928;-39
2022/01/26 00:15:32;;;;;;;;;;;;;;;19.73;40.23;101155.03;2083863;28;19926;-39
2022/01/26 00:16:38;;;;;;;;;;;;;;;19.73;40.24;101161.38;2082781;28;19920;-39
2022/01/26 00:17:39;;;;;;;;;;;;;;;19.74;40.18;101156.78;2082873;28;19927;-39
2022/01/26 00:18:39;;;;;;;;;;;;;;;19.75;40.25;101161.25;2076825;28;19924;-39
2022/01/26 00:19:58;;;;;;;;;;;;;;;19.74;40.21;101163.09;2085960;28;19920;-40
2022/01/26 00:21:15;;;;;;;;;;;;;;;19.74;40.21;101156.78;2085155;28;19927;-39
2022/01/26 00:22:34;;;;;;;;;;;;;;;19.72;40.15;101156.91;2084226;28;19927;-40
2022/01/26 00:25:18;;;;;;;;;;;;;;;19.70;40.20;101148.81;2078887;28;19985;-39
2022/01/26 00:26:27;;;;;;;;;;;;;;;19.72;40.23;101156.03;2080091;28;20102;-40
2022/01/26 00:27:43;;;;;;;;;;;;;;;19.72;40.18;101153.28;2081866;28;20308;-39
2022/01/26 00:33:07;;;;;;;;;;;;;;;19.70;40.19;101162.50;2083696;28;19913;-40
2022/01/26 00:39:23;;;;;;;;;;;;;;;19.70;40.20;101157.03;2085450;28;19925;-39
2022/01/26 00:40:33;;;;;;;;;;;;;;;19.70;40.16;101154.28;2081619;28;19925;-40
2022/01/26 00:41:37;;;;;;;;;;;;;;;19.71;40.23;101152.44;2084701;28;19925;-40
2022/01/26 00:42:40;;;;;;;;;;;;;;;19.72;40.17;101153.28;2091710;28;20027;-39
2022/01/26 00:43:45;;;;;;;;;;;;;;;19.73;40.15;101155.03;2084934;28;20349;-40
2022/01/26 00:44:48;;;;;;;;;;;;;;;19.73;40.07;101150.44;2081603;28;19934;-40
2022/01/26 00:45:55;;;;;;;;;;;;;;;19.72;40.10;101156.03;2083442;28;20011;-39
2022/01/26 00:46:55;;;;;;;;;;;;;;;19.73;40.09;101152.31;2085083;28;19924;-39
2022/01/26 00:47:57;;;;;;;;;;;;;;;19.74;40.14;101156.78;2084180;28;20270;-39
2022/01/26 00:48:57;;;;;;;;;;;;;;;19.74;40.15;101151.28;2083874;28;19969;-39
2022/01/26 00:50:02;;;;;;;;;;;;;;;19.74;40.15;101156.78;2080026;28;20704;-39
2022/01/26 00:51:05;;;;;;;;;;;;;;;19.74;40.21;101145.81;2081489;28;19938;-39
2022/01/26 00:52:07;;;;;;;;;;;;;;;19.73;40.16;101144.97;2081710;28;19916;-38
2022/01/26 00:53:08;;;;;;;;;;;;;;;19.73;40.21;101144.09;2080373;28;20010;-39
2022/01/26 00:54:09;;;;;;;;;;;;;;;19.73;40.20;101149.56;2082417;28;20340;-40
2022/01/26 00:55:10;;;;;;;;;;;;;;;19.70;40.18;101146.09;2080472;28;20418;-39
2022/01/26 00:56:11;;;;;;;;;;;;;;;19.70;40.19;101145.22;2083005;28;20411;-39
2022/01/26 00:57:11;;;;;;;;;;;;;;;19.68;40.19;101145.34;2084529;28;19924;-40
2022/01/26 00:58:12;;;;;;;;;;;;;;;19.67;40.12;101140.88;2083579;28;20281;-39
2022/01/26 00:59:12;;;;;;;;;;;;;;;19.66;40.25;101149.19;2084412;28;19924;-39
2022/01/26 01:00:17;;;;;;;;;;;;;;;19.66;40.13;101141.84;2085802;28;20075;-40
2022/01/26 01:01:18;;;;;;;;;;;;;;;19.65;40.25;101142.84;2081624;28;19921;-39
2022/01/26 01:02:18;;;;;;;;;;;;;;;19.63;39.99;101144.84;2082702;28;19975;-39
2022/01/26 01:03:19;;;;;;;;;;;;;;;19.64;40.17;101149.28;2080727;28;19924;-39
2022/01/26 01:04:19;;;;;;;;;;;;;;;19.63;40.24;101146.69;2091565;28;20340;-40
2022/01/26 01:05:24;;;;;;;;;;;;;;;19.63;40.32;101142.09;2089324;28;20239;-39
2022/01/26 01:06:32;;;;;;;;;;;;;;;19.63;40.30;101143.97;2082121;28;20345;-39
2022/01/26 01:07:36;;;;;;;;;;;;;;;19.62;40.32;101143.09;2082830;28;20248;-39
2022/01/26 01:08:39;;;;;;;;;;;;;;;19.60;40.22;101144.19;2085497;28;19920;-39
2022/01/26 01:09:39;;;;;;;;;;;;;;;19.60;40.28;101144.19;2084417;28;19920;-39
2022/01/26 01:10:40;;;;;;;;;;;;;;;19.59;40.39;101140.59;2083129;28;19920;-39
2022/01/26 01:11:41;;;;;;;;;;;;;;;19.60;40.33;101147.81;2082361;28;19917;-40
2022/01/26 01:12:43;;;;;;;;;;;;;;;19.59;40.39;101135.13;2085085;28;19917;-39
2022/01/26 01:13:45;;;;;;;;;;;;;;;19.60;40.37;101138.72;2080892;28;19920;-39
2022/01/26 01:14:47;;;;;;;;;;;;;;;19.60;40.32;101133.25;2085884;28;20046;-39
2022/01/26 01:15:48;;;;;;;;;;;;;;;19.60;40.37;101141.47;2079574;28;20303;-40
2022/01/26 01:16:48;;;;;;;;;;;;;;;19.60;40.41;101147.81;2083954;28;19978;-39
2022/01/26 01:17:53;;;;;;;;;;;;;;;19.60;40.28;101145.09;2082934;28;19929;-39
2022/01/26 01:20:11;;;;;;;;;;;;;;;19.60;40.33;101150.56;2079564;28;19947;-39
2022/01/26 01:22:48;;;;;;;;;;;;;;;19.58;40.30;101147.09;2084505;28;19921;-39
2022/01/26 01:26:41;;;;;;;;;;;;;;;19.55;40.32;101150.09;2082185;28;20227;-39
2022/01/26 01:31:28;;;;;;;;;;;;;;;19.53;40.46;101157.53;2080988;28;20015;-40
2022/01/26 01:33:51;;;;;;;;;;;;;;;19.50;40.46;101141.41;2066114;28;19920;-39
2022/01/26 01:34:51;;;;;;;;;;;;;;;19.48;40.50;101141.50;2080098;28;19924;-39
2022/01/26 01:35:52;;;;;;;;;;;;;;;19.50;40.48;101144.13;2084258;28;19978;-39
2022/01/26 01:36:54;;;;;;;;;;;;;;;19.49;40.45;101134.16;2087056;28;19956;-40
2022/01/26 01:37:54;;;;;;;;;;;;;;;19.49;40.50;101142.38;2084015;28;19992;-39
2022/01/26 01:38:55;;;;;;;;;;;;;;;19.49;40.56;101147.84;2080072;28;19920;-39
2022/01/26 01:39:55;;;;;;;;;;;;;;;19.48;40.50;101141.50;2082528;28;20345;-39
2022/01/26 01:40:56;;;;;;;;;;;;;;;19.49;40.55;101142.38;2082919;28;19925;-39
2022/01/26 01:41:56;;;;;;;;;;;;;;;19.48;40.62;101149.72;2083881;28;19962;-39
2022/01/26 01:42:56;;;;;;;;;;;;;;;19.48;40.48;101146.97;2078062;28;20413;-40
2022/01/26 01:43:56;;;;;;;;;;;;;;;19.48;40.54;101136.03;2085276;28;19924;-39
2022/01/26 01:44:57;;;;;;;;;;;;;;;19.48;40.47;101136.03;2084346;28;20309;-39
2022/01/26 01:45:57;;;;;;;;;;;;;;;19.49;40.56;101143.22;2078790;28;20330;-39
2022/01/26 01:46:58;;;;;;;;;;;;;;;19.51;40.52;101139.53;2078525;28;19931;-39
2022/01/26 01:47:58;;;;;;;;;;;;;;;19.49;40.50;101142.38;2078688;28;19989;-39
2022/01/26 01:48:59;;;;;;;;;;;;;;;19.48;40.64;101141.50;2083043;28;20727;-39
2022/01/26 01:49:59;;;;;;;;;;;;;;;19.50;40.56;101149.59;2085344;28;20218;-39
2022/01/26 01:51:03;;;;;;;;;;;;;;;19.49;40.60;101145.09;2078911;28;19924;-39
2022/01/26 01:52:10;;;;;;;;;;;;;;;19.48;40.55;101135.19;2081043;28;19930;-39
2022/01/26 01:53:11;;;;;;;;;;;;;;;19.46;40.49;101140.75;2084847;28;19912;-39
2022/01/26 01:54:17;;;;;;;;;;;;;;;19.46;40.57;101139.91;2083098;28;20297;-39
2022/01/26 01:55:17;;;;;;;;;;;;;;;19.45;40.64;101143.59;2083442;28;20305;-40
2022/01/26 01:56:20;;;;;;;;;;;;;;;19.43;40.57;101137.44;2084735;28;19921;-39
2022/01/26 01:57:23;;;;;;;;;;;;;;;19.42;40.60;101135.66;2084020;28;19928;-39
2022/01/26 01:58:23;;;;;;;;;;;;;;;19.42;40.68;101142.00;2083774;28;19920;-39
2022/01/26 01:59:25;;;;;;;;;;;;;;;19.41;40.66;101134.81;2081152;28;19931;-39
2022/01/26 02:00:27;;;;;;;;;;;;;;;19.41;40.68;101136.69;2083926;28;19942;-39
2022/01/26 02:01:27;;;;;;;;;;;;;;;19.41;40.74;101139.41;2081286;28;20207;-39
2022/01/26 02:02:27;;;;;;;;;;;;;;;19.40;40.69;101138.56;2082919;28;19920;-39
2022/01/26 02:03:28;;;;;;;;;;;;;;;19.38;40.77;101140.53;2082589;28;19925;-40
2022/01/26 02:04:28;;;;;;;;;;;;;;;19.39;40.67;101144.13;2079448;28;19920;-39
2022/01/26 02:05:29;;;;;;;;;;;;;;;19.38;40.71;101146.00;2084293;28;19953;-39
2022/01/26 02:06:29;;;;;;;;;;;;;;;19.37;40.73;101143.38;2082213;28;19920;-39
2022/01/26 02:07:30;;;;;;;;;;;;;;;19.37;40.73;101148.84;2082808;28;19952;-39
2022/01/26 02:08:30;;;;;;;;;;;;;;;19.37;40.73;101143.38;2083727;28;19927;-38
2022/01/26 02:09:31;;;;;;;;;;;;;;;19.36;40.71;101141.66;2081620;28;20073;-39
2022/01/26 02:10:33;;;;;;;;;;;;;;;19.36;40.87;101147.13;2081064;28;20373;-39
2022/01/26 02:11:33;;;;;;;;;;;;;;;19.35;40.90;101145.38;2082393;28;20516;-39
2022/01/26 02:12:37;;;;;;;;;;;;;;;19.36;40.86;101144.41;2083299;28;20473;-39
2022/01/26 02:13:48;;;;;;;;;;;;;;;19.35;40.88;101140.75;2084471;28;19975;-39
2022/01/26 02:14:54;;;;;;;;;;;;;;;19.35;40.79;101148.09;2078171;28;19950;-39
2022/01/26 02:16:05;;;;;;;;;;;;;;;19.35;40.78;101145.38;2084793;28;19931;-38
2022/01/26 02:17:22;;;;;;;;;;;;;;;19.35;40.86;101145.38;2079772;28;20381;-39
2022/01/26 02:20:28;;;;;;;;;;;;;;;19.35;40.82;101148.09;2069355;28;20456;-39
2022/01/26 03:02:07;;;;;;;;;;;;;;;19.11;41.20;101143.66;2083287;28;19926;-39
2022/01/26 03:03:19;;;;;;;;;;;;;;;19.11;41.22;101145.50;2082848;28;20765;-39
2022/01/26 03:05:41;;;;;;;;;;;;;;;19.09;41.28;101151.13;2082697;28;20012;-40
2022/01/26 03:06:54;;;;;;;;;;;;;;;19.08;41.28;101146.63;2081705;28;19920;-39
2022/01/26 03:08:05;;;;;;;;;;;;;;;19.07;41.30;101153.09;2083751;28;19921;-39
2022/01/26 03:09:11;;;;;;;;;;;;;;;19.06;41.29;101154.97;2084995;28;19920;-38
2022/01/26 03:11:25;;;;;;;;;;;;;;;19.05;41.37;101150.47;2082775;28;19973;-39
2022/01/26 03:12:35;;;;;;;;;;;;;;;19.06;41.41;101156.84;2076515;28;19993;-39
2022/01/26 03:13:39;;;;;;;;;;;;;;;19.07;41.24;101147.63;2081073;28;20218;-39
2022/01/26 03:14:49;;;;;;;;;;;;;;;19.06;41.38;101154.09;2080168;28;20006;-39
2022/01/26 03:15:55;;;;;;;;;;;;;;;19.06;41.24;101154.09;2080954;28;19984;-39
2022/01/26 03:17:01;;;;;;;;;;;;;;;19.05;41.33;101152.34;2084459;28;19920;-39
2022/01/26 03:20:17;;;;;;;;;;;;;;;19.05;41.28;101149.63;2078953;28;19931;-39
2022/01/26 03:21:23;;;;;;;;;;;;;;;19.04;41.26;101147.91;2082036;28;20682;-40
2022/01/26 03:28:46;;;;;;;;;;;;;;;18.97;41.51;101142.03;2081909;28;20427;-39
2022/01/26 03:30:00;;;;;;;;;;;;;;;18.96;41.44;101145.78;2078487;28;20005;-39
2022/01/26 03:32:47;;;;;;;;;;;;;;;18.95;41.57;101143.16;2083602;28;19927;-39
2022/01/26 03:33:53;;;;;;;;;;;;;;;18.93;41.42;101146.00;2080459;28;20157;-39
2022/01/26 03:34:56;;;;;;;;;;;;;;;18.93;41.47;101140.53;2082139;28;19930;-39
2022/01/26 03:35:59;;;;;;;;;;;;;;;18.92;41.63;101137.97;2080370;28;19995;-38
2022/01/26 03:37:05;;;;;;;;;;;;;;;18.92;41.46;101148.88;2082859;28;20003;-38
2022/01/26 03:38:07;;;;;;;;;;;;;;;18.90;41.59;101135.34;2083764;28;19962;-38
2022/01/26 03:39:09;;;;;;;;;;;;;;;18.91;41.57;101142.53;2077204;28;19967;-39
2022/01/26 03:40:14;;;;;;;;;;;;;;;18.91;41.57;101148.00;2083307;28;19992;-39
2022/01/26 03:42:33;;;;;;;;;;;;;;;18.90;41.46;101135.34;2082836;28;19925;-39
2022/01/26 03:43:33;;;;;;;;;;;;;;;18.90;41.66;101135.34;2080730;28;20563;-39
2022/01/26 03:44:34;;;;;;;;;;;;;;;18.91;41.62;101133.47;2086257;28;20002;-39
2022/01/26 03:45:34;;;;;;;;;;;;;;;18.91;41.47;101130.72;2085563;28;19920;-39
2022/01/26 03:46:35;;;;;;;;;;;;;;;18.89;41.48;101132.72;2081680;28;19950;-39
2022/01/26 03:47:35;;;;;;;;;;;;;;;18.90;41.48;101129.00;2084117;28;20436;-39
2022/01/26 03:48:35;;;;;;;;;;;;;;;18.91;41.64;101130.72;2084555;28;19926;-38
2022/01/26 03:49:36;;;;;;;;;;;;;;;18.91;41.56;101130.72;2084673;28;19959;-39
2022/01/26 03:50:36;;;;;;;;;;;;;;;18.90;41.44;101132.59;2084805;28;19912;-39
2022/01/26 03:51:37;;;;;;;;;;;;;;;18.89;41.56;101133.59;2084664;28;20440;-39
2022/01/26 03:52:37;;;;;;;;;;;;;;;18.89;41.49;101132.72;2085653;28;19958;-39
2022/01/26 03:53:38;;;;;;;;;;;;;;;18.88;41.51;101137.31;2083401;28;20712;-40
2022/01/26 03:54:38;;;;;;;;;;;;;;;18.87;41.54;101129.25;2088085;28;20633;-39
2022/01/26 03:55:39;;;;;;;;;;;;;;;18.87;41.60;101132.00;2086068;28;20400;-39
2022/01/26 03:56:39;;;;;;;;;;;;;;;18.85;41.59;101132.09;2086350;28;19948;-39
2022/01/26 03:57:39;;;;;;;;;;;;;;;18.83;41.60;101129.50;2083729;28;19970;-39
2022/01/26 03:58:40;;;;;;;;;;;;;;;18.82;41.70;101126.91;2080124;28;20724;-39
2022/01/26 03:59:40;;;;;;;;;;;;;;;18.80;41.56;101129.75;2084106;28;19912;-39
2022/01/26 04:00:40;;;;;;;;;;;;;;;18.79;41.78;101119.81;2080525;28;19952;-39
2022/01/26 04:01:41;;;;;;;;;;;;;;;18.79;41.62;101121.66;2086836;28;19951;-39
2022/01/26 04:02:41;;;;;;;;;;;;;;;18.78;41.67;101122.66;2081403;28;19920;-38
2022/01/26 04:03:42;;;;;;;;;;;;;;;18.77;41.69;101116.34;2085630;28;19947;-39
2022/01/26 04:04:48;;;;;;;;;;;;;;;18.77;41.85;101124.53;2085267;28;20285;-39
2022/01/26 04:05:48;;;;;;;;;;;;;;;18.76;41.61;101122.78;2079778;28;19914;-39
2022/01/26 04:06:49;;;;;;;;;;;;;;;18.76;41.76;101117.31;2081065;28;19963;-38
2022/01/26 04:07:55;;;;;;;;;;;;;;;18.76;41.84;101119.19;2078335;28;19924;-39
2022/01/26 04:08:55;;;;;;;;;;;;;;;18.75;41.78;101121.00;2084994;28;19960;-39
2022/01/26 04:10:04;;;;;;;;;;;;;;;18.74;41.85;101124.75;2084047;28;19994;-39
2022/01/26 04:11:29;;;;;;;;;;;;;;;18.74;41.92;101123.84;2082283;28;19908;-38
2022/01/26 04:12:31;;;;;;;;;;;;;;;18.73;41.83;101123.00;2084889;28;19920;-39
2022/01/26 04:13:31;;;;;;;;;;;;;;;18.74;41.70;101118.41;2088427;28;19923;-39
2022/01/26 04:14:33;;;;;;;;;;;;;;;18.73;41.90;101123.00;2082191;28;19945;-39
2022/01/26 04:15:35;;;;;;;;;;;;;;;18.73;42.00;101123.00;2084365;28;19920;-39
2022/01/26 04:16:36;;;;;;;;;;;;;;;18.73;41.92;101123.00;2083283;28;20597;-39
2022/01/26 04:17:36;;;;;;;;;;;;;;;18.73;41.92;101122.13;2086176;28;19963;-39
2022/01/26 04:18:39;;;;;;;;;;;;;;;18.73;41.90;101123.00;2085888;28;19916;-39
2022/01/26 04:19:40;;;;;;;;;;;;;;;18.73;41.76;101131.19;2086048;28;19920;-39
2022/01/26 04:20:45;;;;;;;;;;;;;;;18.72;41.77;101121.28;2083548;28;20728;-39
2022/01/26 04:23:06;;;;;;;;;;;;;;;18.71;41.75;101122.25;2081932;28;20004;-39
2022/01/26 04:25:20;;;;;;;;;;;;;;;18.70;41.80;101133.31;2083565;28;19979;-39
2022/01/26 04:26:27;;;;;;;;;;;;;;;18.67;42.03;101134.44;2082753;28;19954;-40
2022/01/26 04:27:42;;;;;;;;;;;;;;;18.68;42.03;101140.75;2085608;28;19993;-39
2022/01/26 04:28:49;;;;;;;;;;;;;;;18.64;42.00;101137.38;2085299;28;19971;-38
2022/01/26 04:29:51;;;;;;;;;;;;;;;18.64;41.75;101130.06;2081667;28;19939;-40
2022/01/26 04:30:51;;;;;;;;;;;;;;;18.64;42.10;101135.53;2084432;28;19942;-39
2022/01/26 04:31:52;;;;;;;;;;;;;;;18.64;41.97;101140.09;2084740;28;20114;-39
2022/01/26 04:32:52;;;;;;;;;;;;;;;18.62;42.09;101133.94;2085022;28;19920;-39
2022/01/26 04:33:54;;;;;;;;;;;;;;;18.61;42.06;101130.28;2092025;28;20102;-39
2022/01/26 04:34:56;;;;;;;;;;;;;;;18.60;42.07;101133.16;2090861;28;19916;-39
2022/01/26 04:35:56;;;;;;;;;;;;;;;18.61;42.19;101140.34;2088432;28;19998;-39
2022/01/26 04:37:05;;;;;;;;;;;;;;;18.59;42.20;101132.31;2083274;28;19920;-39
2022/01/26 04:39:19;;;;;;;;;;;;;;;18.59;42.18;101137.78;2086183;28;20367;-39
2022/01/26 04:40:20;;;;;;;;;;;;;;;18.59;42.17;101136.88;2084442;28;20681;-38
2022/01/26 04:41:38;;;;;;;;;;;;;;;18.60;42.16;101146.81;2082810;28;19917;-39
2022/01/26 04:42:49;;;;;;;;;;;;;;;18.58;42.01;101135.16;2080817;28;20046;-39
2022/01/26 04:43:54;;;;;;;;;;;;;;;18.60;42.17;101138.63;2082404;28;19925;-39
2022/01/26 04:45:08;;;;;;;;;;;;;;;18.60;41.86;101138.63;2082883;28;19924;-39
2022/01/26 04:46:09;;;;;;;;;;;;;;;18.59;42.06;101145.06;2085066;28;20119;-39
2022/01/26 04:47:09;;;;;;;;;;;;;;;18.59;42.10;101142.34;2079240;28;19917;-39
2022/01/26 04:48:09;;;;;;;;;;;;;;;18.58;42.12;101146.06;2082016;28;19916;-39
2022/01/26 04:49:10;;;;;;;;;;;;;;;18.57;41.98;101150.66;2081186;28;19921;-39
2022/01/26 04:50:10;;;;;;;;;;;;;;;18.57;42.04;101147.03;2084267;28;19916;-40
2022/01/26 04:51:11;;;;;;;;;;;;;;;18.55;41.90;101141.72;2083090;28;19966;-39
2022/01/26 04:52:11;;;;;;;;;;;;;;;18.57;41.98;101149.78;2080915;28;19917;-39
2022/01/26 04:53:12;;;;;;;;;;;;;;;18.56;41.87;101143.44;2085768;28;19923;-39
2022/01/26 04:54:13;;;;;;;;;;;;;;;18.54;42.04;101147.28;2078906;28;19924;-39
2022/01/26 04:55:14;;;;;;;;;;;;;;;18.54;42.23;101150.03;2082904;28;19917;-39
2022/01/26 04:56:14;;;;;;;;;;;;;;;18.52;42.09;101150.16;2086058;28;19992;-39
2022/01/26 04:57:15;;;;;;;;;;;;;;;18.52;41.98;101149.28;2085419;28;19981;-39
2022/01/26 04:58:15;;;;;;;;;;;;;;;18.51;42.22;101142.94;2085972;28;20447;-39
2022/01/26 04:59:15;;;;;;;;;;;;;;;18.50;42.17;101148.53;2083766;28;19916;-39
2022/01/26 05:00:16;;;;;;;;;;;;;;;18.50;42.16;101140.34;2085510;28;19920;-39
2022/01/26 05:01:16;;;;;;;;;;;;;;;18.49;42.36;101144.06;2081387;28;19924;-39
2022/01/26 05:02:17;;;;;;;;;;;;;;;18.48;42.34;101139.59;2085025;28;19916;-39
2022/01/26 05:03:17;;;;;;;;;;;;;;;18.48;42.27;101145.06;2080672;28;20337;-39
2022/01/26 05:04:18;;;;;;;;;;;;;;;18.47;42.33;101137.84;2083991;28;20270;-39
2022/01/26 05:05:18;;;;;;;;;;;;;;;18.47;42.14;101143.31;2082562;28;19917;-39
2022/01/26 05:06:19;;;;;;;;;;;;;;;18.46;42.37;101147.03;2084290;28;19913;-39
2022/01/26 05:07:19;;;;;;;;;;;;;;;18.47;42.37;101143.31;2086241;28;20024;-39
2022/01/26 05:08:19;;;;;;;;;;;;;;;18.46;42.38;101147.03;2084169;28;19942;-38
2022/01/26 05:09:21;;;;;;;;;;;;;;;18.45;42.25;101145.28;2084486;28;20671;-40
2022/01/26 05:10:21;;;;;;;;;;;;;;;18.44;42.26;101149.88;2082921;28;19920;-39
2022/01/26 05:11:40;;;;;;;;;;;;;;;18.43;42.38;101143.56;2084815;28;19947;-39
2022/01/26 05:12:41;;;;;;;;;;;;;;;18.43;42.14;101143.56;2083240;28;19928;-38
2022/01/26 05:13:41;;;;;;;;;;;;;;;18.43;42.35;101148.16;2082463;28;19959;-39
2022/01/26 05:14:44;;;;;;;;;;;;;;;18.43;42.30;101146.28;2085099;28;20003;-39
2022/01/26 05:15:45;;;;;;;;;;;;;;;18.43;42.42;101143.56;2082446;28;19978;-39
2022/01/26 05:16:45;;;;;;;;;;;;;;;18.43;42.32;101143.56;2086479;28;19974;-39
2022/01/26 05:17:45;;;;;;;;;;;;;;;18.44;42.43;101147.16;2082268;28;20167;-39
2022/01/26 05:18:46;;;;;;;;;;;;;;;18.45;42.34;101150.75;2080024;28;19929;-39
2022/01/26 05:19:46;;;;;;;;;;;;;;;18.45;42.29;101148.00;2080103;28;19995;-39
2022/01/26 05:20:47;;;;;;;;;;;;;;;18.46;42.36;101149.78;2081277;28;20015;-39
2022/01/26 05:21:47;;;;;;;;;;;;;;;18.45;42.40;101150.75;2083207;28;20362;-39
2022/01/26 05:22:47;;;;;;;;;;;;;;;18.45;42.47;101156.19;2081848;28;20379;-39
2022/01/26 05:23:48;;;;;;;;;;;;;;;18.45;42.32;101150.75;2083863;28;19924;-38
2022/01/26 05:24:48;;;;;;;;;;;;;;;18.42;42.43;101147.28;2085079;28;19921;-39
2022/01/26 05:25:48;;;;;;;;;;;;;;;18.42;42.36;101152.75;2080482;28;19954;-39
2022/01/26 05:26:49;;;;;;;;;;;;;;;18.43;42.32;101151.75;2083932;28;19955;-39
2022/01/26 05:27:49;;;;;;;;;;;;;;;18.42;42.38;101141.81;2085496;28;19945;-39
2022/01/26 05:28:49;;;;;;;;;;;;;;;18.41;42.16;101152.84;2081926;28;19928;-39
2022/01/26 05:29:50;;;;;;;;;;;;;;;18.43;42.40;101153.59;2085490;28;20234;-39
2022/01/26 05:30:50;;;;;;;;;;;;;;;18.41;42.32;101151.00;2082095;28;20389;-38
2022/01/26 05:31:50;;;;;;;;;;;;;;;18.41;42.40;101156.44;2083481;28;19920;-39
2022/01/26 05:32:51;;;;;;;;;;;;;;;18.42;42.33;101151.84;2082169;28;19921;-39
2022/01/26 05:33:51;;;;;;;;;;;;;;;18.41;42.22;101148.25;2081505;28;20270;-39
2022/01/26 05:34:52;;;;;;;;;;;;;;;18.42;42.26;101151.84;2082985;28;19964;-39
2022/01/26 05:35:52;;;;;;;;;;;;;;;18.41;42.16;101151.00;2084178;28;20332;-39
2022/01/26 05:36:53;;;;;;;;;;;;;;;18.41;42.16;101153.72;2083960;28;19968;-39
2022/01/26 05:37:53;;;;;;;;;;;;;;;18.40;42.28;101154.72;2086022;28;20718;-39
2022/01/26 05:38:53;;;;;;;;;;;;;;;18.39;42.33;101152.97;2083219;28;19974;-38
2022/01/26 05:39:53;;;;;;;;;;;;;;;18.39;42.31;101152.97;2084519;28;20576;-39
2022/01/26 05:40:56;;;;;;;;;;;;;;;18.39;42.25;101152.09;2083374;28;19921;-39
2022/01/26 05:41:57;;;;;;;;;;;;;;;18.39;42.33;101152.09;2082450;28;19986;-39
2022/01/26 05:42:57;;;;;;;;;;;;;;;18.37;42.27;101149.50;2082680;28;20567;-39
2022/01/26 05:43:58;;;;;;;;;;;;;;;18.37;42.25;101157.69;2078519;28;19929;-39
2022/01/26 05:45:03;;;;;;;;;;;;;;;18.37;42.39;101154.97;2079838;28;19927;-39
2022/01/26 05:46:09;;;;;;;;;;;;;;;18.37;42.26;101154.97;2082650;28;19924;-39
2022/01/26 05:47:14;;;;;;;;;;;;;;;18.36;42.46;101161.41;2080545;28;20025;-39
2022/01/26 05:48:15;;;;;;;;;;;;;;;18.36;42.22;101157.81;2083301;28;19946;-38
2022/01/26 05:49:17;;;;;;;;;;;;;;;18.36;42.37;101155.94;2082638;28;19936;-38
2022/01/26 05:50:19;;;;;;;;;;;;;;;18.35;42.38;101167.88;2085741;28;19963;-39
2022/01/26 05:51:19;;;;;;;;;;;;;;;18.33;42.40;101158.91;2081978;28;19933;-38
2022/01/26 05:52:20;;;;;;;;;;;;;;;18.33;42.28;101160.78;2085081;28;19959;-39
2022/01/26 05:53:23;;;;;;;;;;;;;;;18.32;42.36;101161.75;2081873;28;20475;-39
2022/01/26 05:54:23;;;;;;;;;;;;;;;18.31;42.43;101155.44;2085097;28;20074;-39
2022/01/26 05:55:23;;;;;;;;;;;;;;;18.29;42.39;101157.41;2082538;28;19950;-39
2022/01/26 05:56:24;;;;;;;;;;;;;;;18.29;42.41;101151.06;2082181;28;20101;-39
2022/01/26 05:57:24;;;;;;;;;;;;;;;18.27;42.49;101153.91;2087075;28;19975;-39
2022/01/26 05:58:24;;;;;;;;;;;;;;;18.26;42.46;101149.47;2083088;28;20560;-38
2022/01/26 05:59:25;;;;;;;;;;;;;;;18.26;42.33;101160.38;2083900;28;19934;-39
2022/01/26 06:00:25;;;;;;;;;;;;;;;18.25;42.48;101155.91;2082617;28;19965;-39
2022/01/26 06:01:26;;;;;;;;;;;;;;;18.26;42.58;101151.31;2083921;28;20277;-39
2022/01/26 06:02:26;;;;;;;;;;;;;;;18.24;42.50;101156.03;2084392;28;19997;-39
2022/01/26 06:03:27;;;;;;;;;;;;;;;18.24;42.29;101159.63;2083075;28;19925;-39
2022/01/26 06:04:28;;;;;;;;;;;;;;;18.23;42.47;101163.34;2083347;28;19926;-39
2022/01/26 06:05:28;;;;;;;;;;;;;;;18.23;42.39;101166.09;2084937;28;19927;-39
2022/01/26 06:06:29;;;;;;;;;;;;;;;18.23;42.54;101163.34;2080468;28;19921;-39
2022/01/26 06:07:29;;;;;;;;;;;;;;;18.23;42.49;101159.72;2082039;28;19966;-38
2022/01/26 06:08:29;;;;;;;;;;;;;;;18.22;42.45;101158.88;2081384;28;20451;-40
2022/01/26 06:09:30;;;;;;;;;;;;;;;18.22;42.56;101156.13;2083548;28;19952;-39
2022/01/26 06:10:30;;;;;;;;;;;;;;;18.21;42.45;101157.13;2084737;28;19975;-39
2022/01/26 06:11:31;;;;;;;;;;;;;;;18.20;42.55;101161.72;2080575;28;19920;-39
2022/01/26 06:12:33;;;;;;;;;;;;;;;18.20;42.57;101158.09;2084212;28;20129;-38
2022/01/26 06:13:34;;;;;;;;;;;;;;;18.22;42.55;101172.50;2081598;28;19980;-39
2022/01/26 06:14:35;;;;;;;;;;;;;;;18.21;42.56;101163.47;2082684;28;19932;-41
2022/01/26 06:15:35;;;;;;;;;;;;;;;18.21;42.67;101159.88;2080876;28;19924;-39
2022/01/26 06:16:36;;;;;;;;;;;;;;;18.21;42.28;101166.19;2083558;28;19960;-39
2022/01/26 06:17:36;;;;;;;;;;;;;;;18.22;42.38;101161.59;2082579;28;19913;-39
2022/01/26 06:18:36;;;;;;;;;;;;;;;18.22;42.36;101164.31;2077565;28;20433;-39
2022/01/26 06:19:37;;;;;;;;;;;;;;;18.24;42.25;101169.69;2082382;28;19956;-39
2022/01/26 06:20:37;;;;;;;;;;;;;;;18.25;42.35;101165.94;2082138;28;19927;-39
2022/01/26 06:21:38;;;;;;;;;;;;;;;18.26;42.35;101167.69;2081350;28;19999;-39
2022/01/26 06:22:39;;;;;;;;;;;;;;;18.26;42.18;101168.56;2081879;28;20050;-39
2022/01/26 06:23:39;;;;;;;;;;;;;;;18.28;42.14;101173.91;2082621;28;20252;-39
2022/01/26 06:24:40;;;;;;;;;;;;;;;18.28;42.07;101166.59;2083696;28;20042;-39
2022/01/26 06:25:40;;;;;;;;;;;;;;;18.29;42.04;101164.72;2080214;28;20565;-39
2022/01/26 06:26:42;;;;;;;;;;;;;;;18.29;41.96;101162.88;2080484;28;20290;-39
2022/01/26 06:27:44;;;;;;;;;;;;;;;18.28;41.86;101158.41;2084573;28;19973;-39
2022/01/26 06:28:44;;;;;;;;;;;;;;;18.31;41.84;101171.81;2084410;28;19987;-39
2022/01/26 06:29:45;;;;;;;;;;;;;;;18.30;41.92;101161.88;2082517;28;19971;-39
2022/01/26 06:30:46;;;;;;;;;;;;;;;18.31;41.81;101160.03;2080958;28;19959;-39
2022/01/26 06:31:47;;;;;;;;;;;;;;;18.32;41.87;101156.28;2082118;28;19977;-39
2022/01/26 06:32:48;;;;;;;;;;;;;;;18.30;41.84;101159.16;2086105;28;20086;-39
2022/01/26 06:33:49;;;;;;;;;;;;;;;18.31;41.73;101158.16;2080746;28;19920;-39
2022/01/26 06:34:49;;;;;;;;;;;;;;;18.31;41.59;101158.16;2083907;28;20210;-39
2022/01/26 06:35:49;;;;;;;;;;;;;;;18.33;41.63;101153.47;2083849;28;20137;-38
2022/01/26 06:36:50;;;;;;;;;;;;;;;18.33;41.55;101161.66;2082775;28;19963;-40
2022/01/26 06:37:50;;;;;;;;;;;;;;;18.33;41.83;101158.91;2081614;28;20830;-39
2022/01/26 06:38:50;;;;;;;;;;;;;;;18.33;41.79;101155.31;2087140;28;19912;-39
2022/01/26 06:39:51;;;;;;;;;;;;;;;18.31;41.61;101160.88;2084985;28;19924;-39
2022/01/26 06:40:52;;;;;;;;;;;;;;;18.32;41.75;101167.22;2081630;28;19921;-39
2022/01/26 06:41:55;;;;;;;;;;;;;;;18.31;41.68;101160.88;2083569;28;19928;-39
2022/01/26 06:42:59;;;;;;;;;;;;;;;18.30;41.63;101159.16;2082420;28;19913;-39
2022/01/26 06:44:07;;;;;;;;;;;;;;;18.30;41.92;101164.63;2079904;28;19924;-39
2022/01/26 06:45:16;;;;;;;;;;;;;;;18.29;41.75;101162.88;2079322;28;19970;-39
2022/01/26 06:46:31;;;;;;;;;;;;;;;18.30;41.72;101159.16;2084485;28;19912;-39
2022/01/26 06:48:25;;;;;;;;;;;;;;;18.30;41.70;101164.63;2082873;28;19926;-39